sensor_id;sensor_type;location;lat;lon;timestamp;pressure;altitude;pressure_sealevel;temperature;humidity
77149;BME280;66122;47.130;16.844;2022-12-20T00:09:32;101283.53;;;-1.49;87.06
77149;BME280;66122;47.130;16.844;2022-12-20T00:19:35;101250.25;;;-1.69;86.63
77149;BME280;66122;47.130;16.844;2022-12-20T00:29:38;101302.88;;;-1.35;87.16
77149;BME280;66122;47.130;16.844;2022-12-20T00:39:40;101262.72;;;-1.52;86.60
77149;BME280;66122;47.130;16.844;2022-12-20T00:49:43;101234.00;;;-1.59;86.93
77149;BME280;66122;47.130;16.844;2022-12-20T00:59:45;101229.94;;;-1.44;87.57
77149;BME280;66122;47.130;16.844;2022-12-20T01:09:48;101205.28;;;-1.65;86.90
77149;BME280;66122;47.130;16.844;2022-12-20T01:19:51;101206.28;;;-1.60;87.07
77149;BME280;66122;47.130;16.844;2022-12-20T01:29:54;101207.13;;;-1.61;87.35
77149;BME280;66122;47.130;16.844;2022-12-20T01:39:56;101241.28;;;-1.39;87.23
77149;BME280;66122;47.130;16.844;2022-12-20T01:50:01;101209.81;;;-1.54;87.61
77149;BME280;66122;47.130;16.844;2022-12-20T02:00:06;101207.91;;;-1.63;88.46
77149;BME280;66122;47.130;16.844;2022-12-20T02:10:18;101235.38;;;-1.29;87.83
77149;BME280;66122;47.130;16.844;2022-12-20T02:30:47;101190.09;;;-1.43;87.33
77149;BME280;66122;47.130;16.844;2022-12-20T02:41:22;101208.53;;;-1.28;87.47
77149;BME280;66122;47.130;16.844;2022-12-20T02:51:27;101165.63;;;-1.54;88.11
77149;BME280;66122;47.130;16.844;2022-12-20T03:01:44;101173.47;;;-1.53;88.62
77149;BME280;66122;47.130;16.844;2022-12-20T03:11:49;101186.13;;;-1.23;88.84
77149;BME280;66122;47.130;16.844;2022-12-20T03:21:52;101175.50;;;-1.35;88.77
77149;BME280;66122;47.130;16.844;2022-12-20T03:31:55;101124.13;;;-1.51;88.98
77149;BME280;66122;47.130;16.844;2022-12-20T03:41:57;101143.47;;;-1.34;89.41
77149;BME280;66122;47.130;16.844;2022-12-20T03:52:00;101104.13;;;-1.55;89.50
77149;BME280;66122;47.130;16.844;2022-12-20T04:02:03;101099.84;;;-1.50;89.50
77149;BME280;66122;47.130;16.844;2022-12-20T04:12:06;101123.28;;;-1.49;89.94
77149;BME280;66122;47.130;16.844;2022-12-20T04:22:11;101081.44;;;-1.64;90.13
77149;BME280;66122;47.130;16.844;2022-12-20T04:32:24;101103.19;;;-1.58;90.60
77149;BME280;66122;47.130;16.844;2022-12-20T04:42:27;101081.81;;;-1.41;89.40
77149;BME280;66122;47.130;16.844;2022-12-20T04:52:31;101086.19;;;-1.39;90.23
77149;BME280;66122;47.130;16.844;2022-12-20T05:02:52;101087.94;;;-1.39;90.96
77149;BME280;66122;47.130;16.844;2022-12-20T05:12:58;101061.69;;;-1.54;90.48
77149;BME280;66122;47.130;16.844;2022-12-20T05:23:13;101094.09;;;-1.33;90.20
77149;BME280;66122;47.130;16.844;2022-12-20T05:33:44;101098.56;;;-1.24;90.79
77149;BME280;66122;47.130;16.844;2022-12-20T05:43:47;101067.13;;;-1.39;91.06
77149;BME280;66122;47.130;16.844;2022-12-20T05:53:50;101058.16;;;-1.60;92.54
77149;BME280;66122;47.130;16.844;2022-12-20T06:03:59;101098.41;;;-1.33;92.50
77149;BME280;66122;47.130;16.844;2022-12-20T06:14:04;101052.16;;;-1.54;92.69
77149;BME280;66122;47.130;16.844;2022-12-20T06:24:14;101047.88;;;-1.50;92.16
77149;BME280;66122;47.130;16.844;2022-12-20T06:34:20;101086.44;;;-1.22;93.08
77149;BME280;66122;47.130;16.844;2022-12-20T06:44:25;101013.84;;;-1.67;93.37
77149;BME280;66122;47.130;16.844;2022-12-20T06:54:32;101036.66;;;-1.48;91.85
77149;BME280;66122;47.130;16.844;2022-12-20T07:04:36;101064.69;;;-1.29;92.15
77149;BME280;66122;47.130;16.844;2022-12-20T07:14:39;101074.28;;;-1.25;92.58
77149;BME280;66122;47.130;16.844;2022-12-20T07:24:47;101067.59;;;-1.09;91.73
77149;BME280;66122;47.130;16.844;2022-12-20T07:34:52;101056.78;;;-1.35;92.18
77149;BME280;66122;47.130;16.844;2022-12-20T07:45:01;101043.66;;;-1.45;92.14
77149;BME280;66122;47.130;16.844;2022-12-20T07:55:07;101049.09;;;-1.30;92.78
77149;BME280;66122;47.130;16.844;2022-12-20T08:05:21;101034.44;;;-1.22;91.41
77149;BME280;66122;47.130;16.844;2022-12-20T08:15:30;101050.00;;;-1.25;91.96
77149;BME280;66122;47.130;16.844;2022-12-20T08:26:06;101077.28;;;-0.97;93.18
77149;BME280;66122;47.130;16.844;2022-12-20T08:36:21;101047.56;;;-1.16;93.69
77149;BME280;66122;47.130;16.844;2022-12-20T08:46:25;101011.13;;;-1.14;92.29
77149;BME280;66122;47.130;16.844;2022-12-20T08:56:28;101030.31;;;-1.09;92.81
77149;BME280;66122;47.130;16.844;2022-12-20T09:06:33;101046.19;;;-0.88;92.67
77149;BME280;66122;47.130;16.844;2022-12-20T09:16:38;101025.28;;;-0.96;92.20
77149;BME280;66122;47.130;16.844;2022-12-20T09:26:41;100997.88;;;-1.34;93.72
77149;BME280;66122;47.130;16.844;2022-12-20T09:36:47;100994.84;;;-1.03;92.51
77149;BME280;66122;47.130;16.844;2022-12-20T09:46:59;100992.97;;;-1.13;93.39
77149;BME280;66122;47.130;16.844;2022-12-20T10:08:23;100962.19;;;-0.78;91.09
77149;BME280;66122;47.130;16.844;2022-12-20T10:18:33;100972.53;;;-0.83;90.74
77149;BME280;66122;47.130;16.844;2022-12-20T10:28:42;100921.03;;;-1.12;91.85
77149;BME280;66122;47.130;16.844;2022-12-20T10:38:51;100945.69;;;-0.79;92.20
77149;BME280;66122;47.130;16.844;2022-12-20T10:48:54;100909.97;;;-0.95;91.70
77149;BME280;66122;47.130;16.844;2022-12-20T11:09:21;100888.94;;;-1.13;94.04
77149;BME280;66122;47.130;16.844;2022-12-20T11:30:11;100904.22;;;-0.66;93.10
77149;BME280;66122;47.130;16.844;2022-12-20T11:40:33;100847.47;;;-1.01;94.38
77149;BME280;66122;47.130;16.844;2022-12-20T11:51:06;100875.31;;;-0.91;95.25
77149;BME280;66122;47.130;16.844;2022-12-20T12:01:28;100838.00;;;-0.96;95.26
77149;BME280;66122;47.130;16.844;2022-12-20T12:11:41;100840.81;;;-0.71;94.04
77149;BME280;66122;47.130;16.844;2022-12-20T12:22:16;100814.59;;;-0.93;96.66
77149;BME280;66122;47.130;16.844;2022-12-20T12:32:46;100830.25;;;-0.90;98.29
77149;BME280;66122;47.130;16.844;2022-12-20T13:24:55;100795.38;;;-1.07;100.00
77149;BME280;66122;47.130;16.844;2022-12-20T13:35:00;100751.03;;;-1.25;100.00
77149;BME280;66122;47.130;16.844;2022-12-20T13:45:08;100750.47;;;-0.91;98.90
77149;BME280;66122;47.130;16.844;2022-12-20T13:55:21;100780.69;;;-1.03;99.07
77149;BME280;66122;47.130;16.844;2022-12-20T14:05:35;100720.66;;;-1.28;100.00
77149;BME280;66122;47.130;16.844;2022-12-20T14:15:39;100753.72;;;-1.13;100.00
77149;BME280;66122;47.130;16.844;2022-12-20T14:25:54;100755.56;;;-1.00;100.00
77149;BME280;66122;47.130;16.844;2022-12-20T14:46:19;100720.00;;;-1.04;99.45
77149;BME280;66122;47.130;16.844;2022-12-20T14:56:27;100755.72;;;-0.85;99.52
77149;BME280;66122;47.130;16.844;2022-12-20T15:06:34;100756.66;;;-0.80;99.13
77149;BME280;66122;47.130;16.844;2022-12-20T15:16:45;100749.69;;;-0.79;99.40
77149;BME280;66122;47.130;16.844;2022-12-20T15:26:49;100685.31;;;-1.09;99.74
77149;BME280;66122;47.130;16.844;2022-12-20T15:36:52;100686.13;;;-1.16;100.00
77149;BME280;66122;47.130;16.844;2022-12-20T15:46:54;100714.91;;;-0.90;100.00
77149;BME280;66122;47.130;16.844;2022-12-20T15:57:02;100679.31;;;-0.97;100.00
77149;BME280;66122;47.130;16.844;2022-12-20T16:07:08;100714.19;;;-0.74;100.00
77149;BME280;66122;47.130;16.844;2022-12-20T16:17:14;100690.56;;;-0.98;100.00
77149;BME280;66122;47.130;16.844;2022-12-20T16:27:18;100684.50;;;-0.99;100.00
77149;BME280;66122;47.130;16.844;2022-12-20T16:37:21;100687.19;;;-0.88;100.00
77149;BME280;66122;47.130;16.844;2022-12-20T16:47:25;100705.34;;;-0.93;100.00
77149;BME280;66122;47.130;16.844;2022-12-20T16:57:31;100667.19;;;-0.95;100.00
77149;BME280;66122;47.130;16.844;2022-12-20T17:07:36;100695.97;;;-0.72;100.00
77149;BME280;66122;47.130;16.844;2022-12-20T17:17:43;100675.13;;;-0.77;99.50
77149;BME280;66122;47.130;16.844;2022-12-20T17:27:45;100701.28;;;-0.56;100.00
77149;BME280;66122;47.130;16.844;2022-12-20T17:37:48;100637.72;;;-0.93;98.40
77149;BME280;66122;47.130;16.844;2022-12-20T17:47:55;100636.88;;;-0.90;100.00
77149;BME280;66122;47.130;16.844;2022-12-20T17:57:58;100663.94;;;-0.62;99.43
77149;BME280;66122;47.130;16.844;2022-12-20T18:08:00;100629.03;;;-0.98;100.00
77149;BME280;66122;47.130;16.844;2022-12-20T18:18:03;100670.94;;;-0.54;100.00
77149;BME280;66122;47.130;16.844;2022-12-20T18:28:06;100644.81;;;-0.64;100.00
77149;BME280;66122;47.130;16.844;2022-12-20T18:38:10;100616.00;;;-0.99;100.00
77149;BME280;66122;47.130;16.844;2022-12-20T18:48:12;100633.41;;;-0.89;100.00
77149;BME280;66122;47.130;16.844;2022-12-20T18:58:16;100628.31;;;-0.75;100.00
77149;BME280;66122;47.130;16.844;2022-12-20T19:08:20;100625.78;;;-0.65;100.00
77149;BME280;66122;47.130;16.844;2022-12-20T19:18:23;100606.66;;;-0.68;100.00
77149;BME280;66122;47.130;16.844;2022-12-20T19:28:26;100617.16;;;-0.47;100.00
77149;BME280;66122;47.130;16.844;2022-12-20T19:38:29;100605.88;;;-0.52;99.33
77149;BME280;66122;47.130;16.844;2022-12-20T19:48:32;100585.00;;;-0.60;100.00
77149;BME280;66122;47.130;16.844;2022-12-20T19:58:36;100575.41;;;-0.71;100.00
77149;BME280;66122;47.130;16.844;2022-12-20T20:08:39;100589.38;;;-0.50;100.00
77149;BME280;66122;47.130;16.844;2022-12-20T20:18:43;100581.63;;;-0.44;100.00
77149;BME280;66122;47.130;16.844;2022-12-20T20:28:47;100560.75;;;-0.54;100.00
77149;BME280;66122;47.130;16.844;2022-12-20T20:38:50;100495.56;;;-0.94;100.00
77149;BME280;66122;47.130;16.844;2022-12-20T20:48:54;100502.50;;;-0.84;100.00
77149;BME280;66122;47.130;16.844;2022-12-20T20:58:56;100539.00;;;-0.68;100.00
77149;BME280;66122;47.130;16.844;2022-12-20T21:09:08;100484.28;;;-0.91;100.00
77149;BME280;66122;47.130;16.844;2022-12-20T21:19:11;100479.91;;;-0.97;100.00
77149;BME280;66122;47.130;16.844;2022-12-20T21:29:13;100479.97;;;-0.85;100.00
77149;BME280;66122;47.130;16.844;2022-12-20T21:39:16;100465.22;;;-0.83;100.00
77149;BME280;66122;47.130;16.844;2022-12-20T21:49:19;100438.28;;;-1.00;100.00
77149;BME280;66122;47.130;16.844;2022-12-20T21:59:22;100420.97;;;-0.93;100.00
77149;BME280;66122;47.130;16.844;2022-12-20T22:09:24;100420.97;;;-0.86;100.00
77149;BME280;66122;47.130;16.844;2022-12-20T22:19:27;100408.88;;;-0.77;100.00
77149;BME280;66122;47.130;16.844;2022-12-20T22:29:29;100417.56;;;-0.75;100.00
77149;BME280;66122;47.130;16.844;2022-12-20T22:39:32;100408.03;;;-0.63;100.00
77149;BME280;66122;47.130;16.844;2022-12-20T22:49:35;100434.09;;;-0.52;100.00
77149;BME280;66122;47.130;16.844;2022-12-20T22:59:37;100424.56;;;-0.44;100.00
77149;BME280;66122;47.130;16.844;2022-12-20T23:09:40;100395.91;;;-0.43;100.00
77149;BME280;66122;47.130;16.844;2022-12-20T23:19:42;100403.75;;;-0.44;100.00
77149;BME280;66122;47.130;16.844;2022-12-20T23:30:07;100348.19;;;-0.61;100.00
77149;BME280;66122;47.130;16.844;2022-12-20T23:40:11;100334.31;;;-0.66;100.00
77149;BME280;66122;47.130;16.844;2022-12-20T23:50:14;100346.44;;;-0.77;100.00
